Clyde, Michigan
Current Conditions -  °F | °C
As of 10:37 AM on Monday 22 Dec 2014 (Local Time) from KPHN Reporting Station
Clear Clear  
Wind Chill: -3°   Ceiling: Unl
Heat Index:   Visibility: 10mi
Dew Point: -2°   Wind: 9mph
Humidity: 81%   Direction: 110°ESE
Pressure: 30.11"   Gusts: NA
Location:  43.0355°N, 82.5759°W
Report Text: KPHN 221537Z AUTO 11008KT 10SM CLR 01/M02 A3011 RMK AO2
Loading
Personal Weather Stations






























Interactive Weather Map New forecast layout! Learn more

10-Day Weather Forecast

Advertisements
Track Severe Weather on mobile